Time;durP1;ratioP1;P1;durP2;ratioP2;P2;SDS_P1;SDS_P2;PMS_P1;PMS_P2;Temp;Humidity;BMP_temperature;BMP_pressure;BME280_temperature;BME280_humidity;BME280_pressure;Samples;Min_cycle;Max_cycle;Signal;HPM_P1;HPM_P2
2023/04/14 00:01:15;;;;;;;4.70;3.50;;;4.90;99.90;;;;;;5027323;28;20204;-55
2023/04/14 00:03:43;;;;;;;4.20;3.80;;;4.80;99.90;;;;;;4993720;28;20246;-59
2023/04/14 00:06:11;;;;;;;4.13;3.73;;;4.80;99.90;;;;;;5023979;28;20200;-56
2023/04/14 00:08:38;;;;;;;4.40;3.97;;;4.70;99.90;;;;;;5024758;28;20219;-61
2023/04/14 00:11:05;;;;;;;5.47;4.47;;;4.70;99.90;;;;;;5009923;28;20200;-60
2023/04/14 00:13:33;;;;;;;5.07;4.67;;;4.70;99.90;;;;;;5024061;28;20196;-59
2023/04/14 00:16:00;;;;;;;4.67;4.27;;;4.80;99.90;;;;;;5022129;28;21195;-53
2023/04/14 00:18:27;;;;;;;5.30;4.50;;;4.70;99.90;;;;;;5001422;28;20232;-54
2023/04/14 00:20:54;;;;;;;6.30;4.90;;;4.80;99.90;;;;;;5004606;28;20200;-57
2023/04/14 00:23:22;;;;;;;6.00;5.37;;;4.70;99.90;;;;;;5014027;28;20208;-61
2023/04/14 00:25:50;;;;;;;7.67;4.30;;;4.70;99.90;;;;;;5012953;28;20203;-57
2023/04/14 00:28:17;;;;;;;5.83;4.40;;;4.60;99.90;;;;;;5017513;28;20803;-58
2023/04/14 00:30:45;;;;;;;5.50;5.00;;;4.50;99.90;;;;;;5016199;28;20231;-57
2023/04/14 00:33:12;;;;;;;4.87;4.23;;;4.50;99.90;;;;;;5004265;28;20707;-59
2023/04/14 00:35:39;;;;;;;6.87;4.40;;;4.50;99.90;;;;;;5010219;28;20917;-53
2023/04/14 00:38:30;;;;;;;5.27;4.87;;;4.60;99.90;;;;;;5018952;28;20363;-59
2023/04/14 00:40:57;;;;;;;4.80;4.30;;;4.60;99.90;;;;;;5017150;28;20230;-56
2023/04/14 00:43:24;;;;;;;4.10;3.80;;;4.50;99.90;;;;;;5023434;28;20184;-61
2023/04/14 00:45:52;;;;;;;6.87;5.33;;;4.50;99.90;;;;;;5019666;28;20241;-57
2023/04/14 00:48:41;;;;;;;5.17;4.77;;;4.50;99.90;;;;;;4998998;28;21818;-58
2023/04/14 00:51:08;;;;;;;4.83;4.33;;;4.50;99.90;;;;;;5012059;28;20200;-61
2023/04/14 00:53:37;;;;;;;5.60;5.10;;;4.50;99.90;;;;;;5007644;28;20330;-60
2023/04/14 00:56:04;;;;;;;5.40;4.90;;;4.50;99.90;;;;;;5023658;28;20219;-56
2023/04/14 00:58:32;;;;;;;5.47;4.97;;;4.40;99.90;;;;;;5017086;28;20212;-55
2023/04/14 01:00:59;;;;;;;6.13;5.47;;;4.50;99.90;;;;;;5024062;28;20188;-57
2023/04/14 01:03:26;;;;;;;5.73;5.00;;;4.40;99.90;;;;;;5010049;28;20197;-60
2023/04/14 01:05:53;;;;;;;6.10;5.03;;;4.40;99.90;;;;;;4987848;28;20207;-58
2023/04/14 01:08:20;;;;;;;6.07;5.13;;;4.40;99.90;;;;;;5012576;28;20620;-60
2023/04/14 01:11:04;;;;;;;6.27;5.63;;;4.40;99.90;;;;;;5012230;28;20204;-54
2023/04/14 01:13:37;;;;;;;6.03;5.43;;;4.40;99.90;;;;;;5016845;28;20293;-52
2023/04/14 01:16:09;;;;;;;5.17;4.47;;;4.30;99.90;;;;;;5019907;28;20215;-51
2023/04/14 01:18:46;;;;;;;6.50;4.80;;;4.30;99.90;;;;;;5007657;28;20296;-57
2023/04/14 01:21:19;;;;;;;5.33;4.83;;;4.20;99.90;;;;;;4983729;28;20211;-60
2023/04/14 01:24:10;;;;;;;7.20;5.27;;;4.20;99.90;;;;;;5023432;28;20214;-54
2023/04/14 01:26:39;;;;;;;5.33;4.83;;;4.10;99.90;;;;;;5023037;28;20734;-56
2023/04/14 01:29:46;;;;;;;5.20;4.70;;;4.20;99.90;;;;;;5022254;28;20355;-53
2023/04/14 01:32:21;;;;;;;6.67;5.13;;;4.20;99.90;;;;;;5017565;28;20281;-60
2023/04/14 01:34:53;;;;;;;5.53;5.03;;;4.20;99.90;;;;;;5032208;28;20203;-59
2023/04/14 01:37:30;;;;;;;5.77;5.17;;;4.10;99.90;;;;;;4990307;28;20269;-60
2023/04/14 01:40:01;;;;;;;5.30;4.80;;;4.10;99.90;;;;;;5018771;28;20210;-58
2023/04/14 01:42:33;;;;;;;5.70;5.10;;;4.00;99.90;;;;;;5013205;28;20188;-57
2023/04/14 01:45:06;;;;;;;6.33;5.20;;;4.00;99.90;;;;;;5003347;28;20258;-56
2023/04/14 01:47:35;;;;;;;5.47;4.93;;;3.90;99.90;;;;;;5012401;28;20227;-61
2023/04/14 01:50:04;;;;;;;5.93;5.40;;;3.80;99.90;;;;;;5006484;28;20212;-57
2023/04/14 01:52:32;;;;;;;5.47;4.97;;;3.70;99.90;;;;;;4988520;28;20779;-60
2023/04/14 01:55:04;;;;;;;5.77;4.97;;;3.70;99.90;;;;;;5016495;28;20199;-56
2023/04/14 01:57:35;;;;;;;6.47;5.27;;;3.80;99.90;;;;;;5017198;28;20203;-61
2023/04/14 02:00:03;;;;;;;6.17;5.57;;;3.70;99.90;;;;;;5018997;28;20791;-61
2023/04/14 02:02:45;;;;;;;6.07;5.17;;;3.70;99.90;;;;;;5013374;28;20196;-59
2023/04/14 02:05:15;;;;;;;6.53;5.83;;;3.70;99.90;;;;;;5017056;28;20216;-57
2023/04/14 02:07:47;;;;;;;6.93;6.00;;;3.70;99.90;;;;;;5003168;28;20278;-57
2023/04/14 02:10:18;;;;;;;7.30;6.43;;;3.70;99.90;;;;;;5006578;28;20197;-55
2023/04/14 02:12:47;;;;;;;6.50;5.77;;;3.60;99.90;;;;;;5016801;28;20239;-58
2023/04/14 02:15:17;;;;;;;6.13;5.53;;;3.60;99.90;;;;;;5006550;28;20947;-61
2023/04/14 02:17:49;;;;;;;6.37;5.27;;;3.60;99.90;;;;;;5013002;28;20300;-56
2023/04/14 02:20:16;;;;;;;6.17;5.30;;;3.70;99.90;;;;;;5016613;28;20195;-59
2023/04/14 02:22:43;;;;;;;6.50;5.30;;;3.70;99.90;;;;;;5004514;28;20246;-59
2023/04/14 02:25:11;;;;;;;6.57;5.80;;;3.70;99.90;;;;;;5004613;28;20209;-60
2023/04/14 02:27:43;;;;;;;5.67;5.13;;;3.70;99.90;;;;;;5016485;28;20223;-58
2023/04/14 02:30:13;;;;;;;5.77;5.17;;;3.70;99.90;;;;;;5012131;28;20193;-60
2023/04/14 02:32:44;;;;;;;6.17;5.57;;;3.60;99.90;;;;;;5013203;28;20776;-59
2023/04/14 02:35:18;;;;;;;5.90;5.30;;;3.60;99.90;;;;;;5000474;28;20196;-60
2023/04/14 02:37:50;;;;;;;6.57;5.67;;;3.60;99.90;;;;;;4998538;28;20318;-59
2023/04/14 02:40:21;;;;;;;5.27;4.77;;;3.60;99.90;;;;;;5012459;28;20397;-60
2023/04/14 02:42:55;;;;;;;6.80;5.20;;;3.50;99.90;;;;;;5012384;28;20278;-60
2023/04/14 02:45:27;;;;;;;6.30;5.53;;;3.50;99.90;;;;;;5008528;28;20298;-59
2023/04/14 02:47:59;;;;;;;7.00;4.67;;;3.50;99.90;;;;;;5020332;28;20872;-59
2023/04/14 02:50:29;;;;;;;5.90;5.13;;;3.50;99.90;;;;;;5015430;28;20906;-56
2023/04/14 02:53:09;;;;;;;6.27;5.23;;;3.50;99.90;;;;;;5000759;28;20212;-61
2023/04/14 02:55:37;;;;;;;6.63;5.63;;;3.40;99.90;;;;;;5000883;28;20285;-58
2023/04/14 02:58:05;;;;;;;7.30;5.37;;;3.30;99.90;;;;;;5012624;28;20243;-59
2023/04/14 03:00:38;;;;;;;6.30;5.47;;;3.40;99.90;;;;;;5003106;28;20204;-60
2023/04/14 03:03:06;;;;;;;7.47;4.87;;;3.20;99.90;;;;;;4994076;28;21010;-59
2023/04/14 03:05:36;;;;;;;5.93;5.10;;;3.20;99.90;;;;;;5060091;28;20229;-57
2023/04/14 03:08:10;;;;;;;5.60;5.00;;;3.30;99.90;;;;;;5026151;28;20283;-60
2023/04/14 03:10:42;;;;;;;5.70;5.20;;;3.20;99.90;;;;;;5046966;28;20217;-59
2023/04/14 03:13:11;;;;;;;5.47;4.90;;;3.30;99.90;;;;;;5040156;28;20226;-60
2023/04/14 03:15:39;;;;;;;6.47;5.10;;;3.10;99.90;;;;;;5052192;28;20352;-56
2023/04/14 03:18:30;;;;;;;6.27;5.33;;;3.10;99.90;;;;;;5057934;28;20237;-60
2023/04/14 03:21:01;;;;;;;5.63;5.13;;;3.20;99.90;;;;;;5067193;28;20191;-58
2023/04/14 03:23:30;;;;;;;6.07;4.67;;;3.20;99.90;;;;;;5023908;28;20836;-61
2023/04/14 03:26:02;;;;;;;7.20;5.17;;;3.00;99.90;;;;;;5044861;28;20217;-58
2023/04/14 03:28:32;;;;;;;5.77;5.03;;;3.20;99.90;;;;;;5057845;28;20213;-59
2023/04/14 03:31:03;;;;;;;5.10;4.57;;;3.10;99.90;;;;;;5056509;28;20221;-57
2023/04/14 03:33:46;;;;;;;6.47;4.97;;;3.10;99.90;;;;;;5065293;28;21294;-57
2023/04/14 03:36:36;;;;;;;5.47;5.00;;;3.00;99.90;;;;;;5055545;28;20365;-58
2023/04/14 03:39:05;;;;;;;6.20;5.17;;;2.90;99.90;;;;;;5022905;28;20223;-60
2023/04/14 03:41:37;;;;;;;5.13;4.73;;;2.90;99.90;;;;;;5042738;28;20207;-57
2023/04/14 03:44:09;;;;;;;5.50;4.80;;;3.00;99.90;;;;;;5058617;28;20190;-58
2023/04/14 03:46:59;;;;;;;6.33;5.50;;;4.80;99.90;;;;;;5057240;28;20709;-55
2023/04/14 03:49:28;;;;;;;5.20;4.53;;;3.00;99.90;;;;;;5052865;28;21054;-60
2023/04/14 03:52:00;;;;;;;6.43;5.83;;;2.90;99.90;;;;;;5061852;28;20195;-59
2023/04/14 03:54:29;;;;;;;6.93;5.63;;;2.90;99.90;;;;;;5030150;28;20218;-61
2023/04/14 03:56:58;;;;;;;5.30;4.80;;;2.90;99.90;;;;;;5067996;28;20211;-55
2023/04/14 03:59:28;;;;;;;5.10;4.60;;;2.80;99.90;;;;;;5055836;28;20284;-60
2023/04/14 04:01:55;;;;;;;6.43;5.20;;;2.80;99.90;;;;;;5045448;28;20199;-58
2023/04/14 04:04:23;;;;;;;7.43;5.10;;;2.90;99.90;;;;;;5056659;28;20210;-60
2023/04/14 04:06:51;;;;;;;7.53;5.63;;;2.80;99.90;;;;;;5041293;28;20918;-54
2023/04/14 04:09:23;;;;;;;6.50;5.63;;;2.90;99.90;;;;;;5050168;28;20272;-60
2023/04/14 04:11:52;;;;;;;6.67;5.33;;;2.90;99.90;;;;;;5043345;28;20203;-54
2023/04/14 04:14:22;;;;;;;6.50;5.10;;;2.90;99.90;;;;;;5053685;28;20214;-59
2023/04/14 04:16:53;;;;;;;6.53;5.20;;;2.90;99.90;;;;;;5061324;28;20207;-52
2023/04/14 04:19:22;;;;;;;6.43;5.47;;;2.90;99.90;;;;;;5057601;28;20761;-60
2023/04/14 04:21:53;;;;;;;5.80;4.57;;;2.90;99.90;;;;;;5038684;28;20210;-61
2023/04/14 04:24:24;;;;;;;8.20;5.90;;;2.90;99.90;;;;;;5053739;28;20199;-56
2023/04/14 04:26:54;;;;;;;6.87;5.80;;;2.80;99.90;;;;;;5034749;28;20662;-60
2023/04/14 04:29:22;;;;;;;6.20;5.37;;;2.80;99.90;;;;;;5053319;28;20219;-57
2023/04/14 04:31:49;;;;;;;6.23;5.63;;;2.80;99.90;;;;;;5064047;28;20198;-61
2023/04/14 04:34:17;;;;;;;11.10;5.50;;;2.80;99.90;;;;;;5055320;28;20245;-58
2023/04/14 04:36:45;;;;;;;6.27;5.67;;;2.80;99.90;;;;;;5041780;28;20203;-61
2023/04/14 04:39:11;;;;;;;7.33;6.00;;;2.80;99.90;;;;;;5053892;28;20890;-56
2023/04/14 04:41:43;;;;;;;6.70;5.13;;;2.80;99.90;;;;;;5033854;28;20210;-61
2023/04/14 04:44:10;;;;;;;7.30;4.97;;;2.80;99.90;;;;;;5070221;28;20175;-54
2023/04/14 04:46:51;;;;;;;6.00;5.40;;;2.80;99.90;;;;;;5056418;28;20206;-61
2023/04/14 04:49:19;;;;;;;7.23;5.30;;;2.80;99.90;;;;;;5051547;28;20218;-59
2023/04/14 04:51:47;;;;;;;6.90;5.43;;;2.80;99.90;;;;;;5062857;28;20203;-61
2023/04/14 04:54:16;;;;;;;6.60;5.23;;;2.80;99.90;;;;;;5054587;28;20218;-54
2023/04/14 04:56:45;;;;;;;6.03;5.20;;;2.80;99.90;;;;;;5051595;28;20848;-61
2023/04/14 04:59:12;;;;;;;5.77;5.23;;;2.80;99.90;;;;;;5046010;28;20259;-52
2023/04/14 05:01:39;;;;;;;6.63;5.30;;;2.90;99.90;;;;;;5051583;28;20566;-61
2023/04/14 05:04:06;;;;;;;8.30;5.43;;;2.90;99.90;;;;;;5052956;28;20938;-55
2023/04/14 05:06:35;;;;;;;7.87;5.53;;;2.90;99.90;;;;;;5053844;28;20198;-60
2023/04/14 05:09:04;;;;;;;7.57;5.37;;;2.90;99.90;;;;;;5055570;28;20226;-55
2023/04/14 05:11:32;;;;;;;6.20;5.20;;;2.90;99.90;;;;;;5062896;28;20923;-59
2023/04/14 05:14:00;;;;;;;6.23;4.80;;;3.00;99.90;;;;;;5036083;28;20219;-60
2023/04/14 05:16:27;;;;;;;5.63;4.70;;;2.90;99.90;;;;;;5057426;28;20199;-60
2023/04/14 05:18:54;;;;;;;7.90;6.17;;;2.90;99.90;;;;;;5063963;28;20222;-54
2023/04/14 05:21:21;;;;;;;6.80;5.50;;;2.90;99.90;;;;;;5060391;28;20195;-59
2023/04/14 05:23:48;;;;;;;8.00;6.30;;;3.00;99.90;;;;;;5051141;28;20201;-58
2023/04/14 05:26:16;;;;;;;6.77;5.53;;;3.00;99.90;;;;;;5052164;28;20194;-49
2023/04/14 05:28:43;;;;;;;8.83;6.63;;;3.10;99.90;;;;;;5031883;28;20725;-54
2023/04/14 05:31:11;;;;;;;8.50;6.60;;;3.10;99.90;;;;;;5061442;28;20190;-57
2023/04/14 05:33:38;;;;;;;9.30;5.90;;;3.20;99.90;;;;;;5050127;28;20218;-54
2023/04/14 05:36:06;;;;;;;6.77;5.90;;;3.20;99.90;;;;;;5054704;28;20286;-59
2023/04/14 05:38:36;;;;;;;6.90;5.93;;;3.20;99.90;;;;;;5054488;28;20211;-56
2023/04/14 05:41:03;;;;;;;12.00;6.17;;;3.30;99.90;;;;;;5054943;28;20201;-60
2023/04/14 05:43:30;;;;;;;9.27;6.57;;;3.30;99.90;;;;;;5060760;28;20182;-51
2023/04/14 05:45:57;;;;;;;10.23;6.33;;;3.40;99.90;;;;;;5042111;28;20723;-59
2023/04/14 05:48:28;;;;;;;7.20;6.40;;;3.50;99.90;;;;;;5049559;28;20222;-54
2023/04/14 05:50:56;;;;;;;7.13;6.43;;;3.60;99.90;;;;;;5054873;28;20211;-58
2023/04/14 05:53:24;;;;;;;9.03;6.70;;;3.60;99.90;;;;;;5045993;28;20218;-49
2023/04/14 05:55:52;;;;;;;7.80;6.17;;;3.70;99.90;;;;;;5066654;28;20194;-53
2023/04/14 05:58:19;;;;;;;6.77;6.10;;;3.70;99.90;;;;;;5058651;28;20218;-56
2023/04/14 06:00:46;;;;;;;9.70;6.67;;;3.80;99.90;;;;;;5038958;28;20206;-53
2023/04/14 06:03:13;;;;;;;9.10;6.33;;;3.80;99.90;;;;;;5047065;28;20304;-56
2023/04/14 06:05:41;;;;;;;7.20;6.03;;;3.90;99.90;;;;;;5056978;28;20259;-58
2023/04/14 06:08:08;;;;;;;7.27;6.17;;;3.90;99.90;;;;;;5050144;28;20291;-60
2023/04/14 06:10:35;;;;;;;7.70;6.70;;;4.00;99.90;;;;;;5055541;28;20962;-56
2023/04/14 06:13:02;;;;;;;10.83;6.87;;;4.10;99.90;;;;;;5056880;28;20263;-57
2023/04/14 06:15:29;;;;;;;8.07;6.73;;;4.10;99.90;;;;;;5043483;28;20293;-60
2023/04/14 06:17:56;;;;;;;12.83;8.57;;;4.20;99.90;;;;;;5056050;28;20221;-57
2023/04/14 06:20:24;;;;;;;11.80;7.90;;;4.20;99.90;;;;;;5052273;28;20224;-60
2023/04/14 06:22:52;;;;;;;8.10;7.03;;;4.30;99.90;;;;;;5055808;28;21541;-48
2023/04/14 06:25:19;;;;;;;11.57;7.43;;;4.50;99.90;;;;;;5061531;28;20194;-59
2023/04/14 06:27:45;;;;;;;9.87;7.50;;;4.50;99.90;;;;;;5045602;28;20218;-58
2023/04/14 06:30:14;;;;;;;10.90;8.00;;;4.60;99.90;;;;;;5036875;28;20217;-55
2023/04/14 06:32:40;;;;;;;9.50;8.50;;;4.70;99.90;;;;;;5058934;28;20709;-60
2023/04/14 06:35:07;;;;;;;11.23;9.03;;;4.80;99.90;;;;;;5051443;28;20210;-54
2023/04/14 06:37:34;;;;;;;12.47;8.40;;;4.90;99.90;;;;;;5058830;28;20201;-60
2023/04/14 06:40:02;;;;;;;11.97;8.37;;;5.00;99.90;;;;;;5052016;28;20281;-56
2023/04/14 06:42:29;;;;;;;14.73;8.57;;;5.10;99.90;;;;;;5057216;28;20211;-56
2023/04/14 06:44:56;;;;;;;11.57;8.70;;;5.20;99.90;;;;;;5047700;28;20217;-56
2023/04/14 06:47:24;;;;;;;13.77;8.93;;;5.30;99.90;;;;;;5044001;28;20231;-54
2023/04/14 06:49:51;;;;;;;9.23;7.90;;;5.30;99.90;;;;;;5047910;28;20208;-56
2023/04/14 06:52:18;;;;;;;10.33;8.33;;;5.40;99.90;;;;;;5057582;28;20222;-50
2023/04/14 06:54:44;;;;;;;12.93;9.10;;;5.60;99.90;;;;;;5043216;28;20222;-54
2023/04/14 06:57:12;;;;;;;13.07;8.77;;;5.70;99.90;;;;;;5053718;28;20256;-54
2023/04/14 06:59:39;;;;;;;18.77;11.03;;;5.80;99.90;;;;;;5041634;28;20288;-58
2023/04/14 07:02:06;;;;;;;12.87;9.83;;;5.90;99.90;;;;;;5032469;28;20202;-58
2023/04/14 07:04:35;;;;;;;20.20;9.63;;;6.00;99.90;;;;;;5056343;28;20256;-55
2023/04/14 07:07:01;;;;;;;14.00;8.87;;;6.10;99.90;;;;;;5058354;28;20195;-58
2023/04/14 07:09:28;;;;;;;10.70;8.03;;;6.20;99.90;;;;;;5051454;28;20206;-52
2023/04/14 07:11:56;;;;;;;14.17;8.40;;;6.30;99.90;;;;;;5061089;28;20210;-57
2023/04/14 07:14:24;;;;;;;14.83;8.00;;;6.40;99.90;;;;;;5048768;28;21289;-59
2023/04/14 07:16:51;;;;;;;20.97;7.20;;;6.50;99.90;;;;;;5038628;28;20271;-55
2023/04/14 07:19:18;;;;;;;11.90;6.63;;;6.60;99.90;;;;;;5060430;28;20281;-57
2023/04/14 07:21:45;;;;;;;12.50;7.77;;;6.80;99.90;;;;;;5050756;28;20635;-55
2023/04/14 07:24:12;;;;;;;13.40;7.50;;;6.90;99.90;;;;;;5053167;28;20202;-55
2023/04/14 07:26:38;;;;;;;9.43;6.30;;;7.00;99.90;;;;;;5060319;28;20201;-58
2023/04/14 07:29:05;;;;;;;7.63;6.50;;;7.10;99.90;;;;;;5045192;28;20214;-59
2023/04/14 07:31:34;;;;;;;9.73;6.17;;;7.10;99.90;;;;;;5032881;28;20746;-56
2023/04/14 07:34:01;;;;;;;11.03;6.33;;;7.20;99.90;;;;;;5065659;28;20210;-57
2023/04/14 07:36:30;;;;;;;8.17;5.40;;;7.30;99.90;;;;;;5045556;28;21004;-55
2023/04/14 07:38:56;;;;;;;8.43;4.80;;;7.40;99.90;;;;;;5056138;28;20888;-57
2023/04/14 07:41:24;;;;;;;9.93;5.27;;;7.50;99.90;;;;;;5050804;28;20332;-57
2023/04/14 07:43:54;;;;;;;6.27;3.93;;;7.60;99.90;;;;;;5055071;28;20259;-59
2023/04/14 07:46:21;;;;;;;8.83;5.67;;;7.70;99.90;;;;;;5034876;28;23880;-56
2023/04/14 07:48:49;;;;;;;5.80;3.87;;;7.80;99.90;;;;;;5047746;28;20222;-54
2023/04/14 07:51:16;;;;;;;9.03;4.10;;;7.80;99.90;;;;;;5051482;28;21480;-56
2023/04/14 07:53:43;;;;;;;7.00;3.57;;;7.90;99.90;;;;;;5057306;28;20206;-56
2023/04/14 07:56:10;;;;;;;6.03;3.70;;;8.00;99.90;;;;;;5046296;28;20205;-59
2023/04/14 07:58:37;;;;;;;5.23;3.53;;;8.10;99.90;;;;;;5055050;28;21031;-52
2023/04/14 08:01:05;;;;;;;5.10;3.10;;;8.20;99.90;;;;;;5041129;28;20205;-55
2023/04/14 08:03:31;;;;;;;6.50;3.03;;;8.30;99.90;;;;;;5031263;28;20272;-58
2023/04/14 08:06:00;;;;;;;6.30;2.70;;;8.40;99.90;;;;;;5044375;28;20204;-59
2023/04/14 08:08:28;;;;;;;4.33;2.63;;;8.40;99.90;;;;;;5044731;28;20238;-54
2023/04/14 08:10:55;;;;;;;4.33;2.80;;;8.50;99.90;;;;;;5040028;28;20292;-58
2023/04/14 08:13:21;;;;;;;6.00;2.70;;;8.50;99.90;;;;;;5062383;28;20190;-55
2023/04/14 08:15:48;;;;;;;7.73;3.30;;;8.60;99.90;;;;;;5059828;28;20241;-54
2023/04/14 08:18:15;;;;;;;4.83;2.90;;;8.70;99.90;;;;;;5044924;28;20242;-58
2023/04/14 08:20:42;;;;;;;5.90;3.30;;;8.80;99.90;;;;;;5064182;28;20218;-60
2023/04/14 08:23:10;;;;;;;6.83;3.80;;;8.90;99.90;;;;;;5053361;28;20281;-61
2023/04/14 08:25:37;;;;;;;5.60;3.10;;;9.00;99.90;;;;;;5047437;28;21013;-61
2023/04/14 08:28:04;;;;;;;7.37;3.00;;;9.10;99.90;;;;;;5052255;28;20292;-56
2023/04/14 08:30:31;;;;;;;3.00;2.70;;;9.30;99.90;;;;;;5058544;28;20198;-60
2023/04/14 08:32:58;;;;;;;8.10;2.97;;;9.40;99.90;;;;;;5028809;28;20897;-56
2023/04/14 08:35:25;;;;;;;3.90;2.33;;;9.50;99.90;;;;;;5063874;28;20211;-54
2023/04/14 08:37:51;;;;;;;3.97;2.87;;;9.60;99.90;;;;;;5056346;28;20214;-55
2023/04/14 08:40:22;;;;;;;5.27;2.53;;;9.70;99.90;;;;;;5051282;28;20205;-52
2023/04/14 08:42:49;;;;;;;4.70;2.20;;;9.80;99.90;;;;;;5046427;28;20230;-58
2023/04/14 08:45:18;;;;;;;4.23;2.13;;;9.80;99.90;;;;;;5063430;28;20190;-57
2023/04/14 08:47:47;;;;;;;5.87;2.27;;;9.90;99.90;;;;;;5034377;28;20237;-60
2023/04/14 08:50:18;;;;;;;5.17;1.97;;;10.00;99.90;;;;;;5061257;28;20770;-54
2023/04/14 08:52:48;;;;;;;6.67;2.40;;;10.10;99.90;;;;;;5052791;28;20202;-59
2023/04/14 08:55:15;;;;;;;4.73;2.00;;;10.20;99.90;;;;;;5051792;28;20249;-52
2023/04/14 08:57:46;;;;;;;4.07;1.73;;;10.20;99.90;;;;;;5054490;28;20582;-59
2023/04/14 09:00:14;;;;;;;2.37;1.40;;;10.30;99.90;;;;;;5068220;28;20637;-50
2023/04/14 09:02:42;;;;;;;6.30;2.00;;;10.40;99.90;;;;;;5037591;28;20202;-58
2023/04/14 09:05:11;;;;;;;4.80;1.50;;;10.50;99.90;;;;;;5045833;28;20210;-53
2023/04/14 09:07:39;;;;;;;3.47;1.70;;;10.70;99.90;;;;;;5054719;28;20199;-54
2023/04/14 09:10:08;;;;;;;1.53;0.73;;;10.70;99.90;;;;;;5058587;28;20961;-57
2023/04/14 09:12:35;;;;;;;2.30;1.00;;;10.80;99.90;;;;;;5061323;28;20198;-58
2023/04/14 09:15:05;;;;;;;4.60;1.57;;;10.90;99.90;;;;;;5043691;28;20288;-54
2023/04/14 09:17:32;;;;;;;2.90;1.10;;;11.00;99.90;;;;;;5056300;28;20277;-59
2023/04/14 09:19:59;;;;;;;6.07;0.93;;;11.10;99.90;;;;;;5047735;28;20198;-59
2023/04/14 09:22:27;;;;;;;4.13;1.30;;;11.10;99.90;;;;;;5060376;28;20862;-53
2023/04/14 09:24:57;;;;;;;5.57;1.30;;;11.10;99.90;;;;;;5051172;28;20451;-54
2023/04/14 09:27:24;;;;;;;5.33;1.07;;;11.10;99.90;;;;;;5051475;28;20214;-59
2023/04/14 09:29:53;;;;;;;5.63;1.83;;;11.20;99.90;;;;;;5044497;28;20941;-56
2023/04/14 09:32:22;;;;;;;4.97;1.37;;;11.20;99.90;;;;;;5055035;28;20603;-56
2023/04/14 09:34:51;;;;;;;2.30;0.97;;;11.20;99.90;;;;;;5029545;28;20224;-57
2023/04/14 09:37:18;;;;;;;2.83;1.10;;;11.30;99.90;;;;;;5057006;28;20578;-53
2023/04/14 09:39:50;;;;;;;7.27;1.37;;;11.30;99.90;;;;;;5059496;28;20218;-59
2023/04/14 09:42:17;;;;;;;6.00;1.53;;;11.40;99.90;;;;;;5053607;28;20197;-52
2023/04/14 09:44:54;;;;;;;5.90;1.20;;;11.50;99.90;;;;;;5051331;28;20199;-59
2023/04/14 09:47:24;;;;;;;6.37;1.30;;;11.50;99.90;;;;;;5045450;28;20835;-56
2023/04/14 09:49:56;;;;;;;3.33;1.43;;;11.60;99.90;;;;;;5047300;28;20202;-55
2023/04/14 09:52:35;;;;;;;4.17;1.30;;;11.70;99.90;;;;;;5050149;28;20268;-54
2023/04/14 09:55:05;;;;;;;4.23;1.40;;;11.70;99.90;;;;;;5065912;28;20210;-58
2023/04/14 09:57:54;;;;;;;2.80;1.30;;;11.70;99.90;;;;;;5050918;28;20736;-54
2023/04/14 10:00:23;;;;;;;3.73;1.30;;;11.80;99.90;;;;;;5042317;28;20286;-55
2023/04/14 10:02:56;;;;;;;4.37;1.60;;;11.80;99.90;;;;;;5065284;28;20209;-55
2023/04/14 10:05:26;;;;;;;5.10;1.73;;;11.90;99.90;;;;;;5036390;28;21331;-55
2023/04/14 10:07:53;;;;;;;6.70;2.23;;;12.00;99.90;;;;;;5060541;28;20296;-50
2023/04/14 10:10:19;;;;;;;4.93;2.17;;;12.00;99.90;;;;;;5048773;28;20197;-51
2023/04/14 10:13:13;;;;;;;6.77;1.70;;;12.00;99.90;;;;;;5052968;28;20209;-54
2023/04/14 10:15:43;;;;;;;2.10;1.30;;;12.00;99.90;;;;;;5049811;28;20221;-58
2023/04/14 10:18:11;;;;;;;5.10;1.67;;;12.00;99.90;;;;;;5044821;28;20460;-55
2023/04/14 10:20:39;;;;;;;2.47;1.47;;;12.10;99.90;;;;;;5064327;28;20199;-56
2023/04/14 10:23:05;;;;;;;3.20;2.03;;;12.20;99.90;;;;;;5036611;28;20203;-55
2023/04/14 10:25:33;;;;;;;4.80;1.90;;;12.20;99.90;;;;;;5068044;28;20195;-55
2023/04/14 10:28:00;;;;;;;2.77;1.80;;;12.20;99.90;;;;;;5041633;28;20226;-58
2023/04/14 10:30:27;;;;;;;2.80;1.60;;;12.20;99.90;;;;;;5054037;28;20206;-51
2023/04/14 10:32:56;;;;;;;5.67;1.87;;;12.30;99.90;;;;;;5048076;28;20218;-58
2023/04/14 10:35:24;;;;;;;5.43;1.50;;;12.40;99.90;;;;;;5049017;28;20206;-55
2023/04/14 10:37:52;;;;;;;1.67;1.40;;;12.50;99.90;;;;;;5033191;28;20254;-57
2023/04/14 10:40:19;;;;;;;1.87;1.00;;;12.60;99.90;;;;;;5063334;28;20199;-57
2023/04/14 10:42:53;;;;;;;4.33;1.03;;;12.60;99.90;;;;;;5056664;28;20210;-59
2023/04/14 10:45:21;;;;;;;3.63;0.90;;;12.60;99.90;;;;;;5038075;28;20248;-56
2023/04/14 10:47:50;;;;;;;1.47;0.80;;;12.60;99.90;;;;;;5051145;28;20237;-56
2023/04/14 10:50:21;;;;;;;4.57;1.03;;;12.50;99.90;;;;;;5058941;28;20206;-56
2023/04/14 10:53:08;;;;;;;1.83;0.80;;;12.40;99.90;;;;;;5030904;28;20210;-55
2023/04/14 10:55:45;;;;;;;3.80;0.80;;;12.40;99.90;;;;;;5048722;28;20214;-56
2023/04/14 10:58:18;;;;;;;2.73;0.77;;;12.40;99.90;;;;;;5055544;28;20202;-55
2023/04/14 11:00:46;;;;;;;6.87;1.40;;;12.40;99.90;;;;;;5034427;28;20205;-55
2023/04/14 11:03:17;;;;;;;3.97;1.10;;;12.40;99.90;;;;;;5050793;28;20294;-57
2023/04/14 11:05:48;;;;;;;2.10;1.00;;;12.30;99.90;;;;;;5064159;28;20198;-57
2023/04/14 11:08:19;;;;;;;4.53;1.10;;;12.40;99.90;;;;;;5035652;28;20712;-55
2023/04/14 11:10:50;;;;;;;5.13;1.20;;;12.40;99.90;;;;;;5067083;28;20697;-60
2023/04/14 11:13:18;;;;;;;1.93;1.03;;;12.40;99.90;;;;;;5057490;28;20182;-53
2023/04/14 11:15:57;;;;;;;4.73;1.50;;;12.30;99.90;;;;;;5062417;28;20222;-57
2023/04/14 11:18:33;;;;;;;7.50;1.13;;;12.50;99.90;;;;;;5038577;28;20313;-55
2023/04/14 11:21:05;;;;;;;3.83;1.20;;;12.50;99.90;;;;;;5058291;28;20183;-52
2023/04/14 11:23:34;;;;;;;3.40;1.33;;;12.60;99.90;;;;;;5043727;28;20201;-59
2023/04/14 11:26:04;;;;;;;2.93;1.20;;;12.60;99.90;;;;;;5040500;28;20280;-57
2023/04/14 11:28:32;;;;;;;3.50;1.30;;;12.60;99.90;;;;;;5067842;28;20233;-59
2023/04/14 11:30:59;;;;;;;3.07;0.97;;;12.60;99.90;;;;;;5054772;28;20198;-55
2023/04/14 11:33:29;;;;;;;2.87;0.80;;;12.70;99.90;;;;;;5061307;28;20200;-55
2023/04/14 11:35:57;;;;;;;3.90;0.80;;;12.80;99.90;;;;;;5048093;28;20233;-59
2023/04/14 11:38:25;;;;;;;2.40;0.70;;;12.90;99.90;;;;;;5057041;28;20910;-56
2023/04/14 11:40:55;;;;;;;4.40;1.00;;;12.90;99.90;;;;;;5037225;28;20915;-54
2023/04/14 11:43:22;;;;;;;5.43;1.00;;;13.00;99.90;;;;;;5067410;28;20257;-57
2023/04/14 11:45:51;;;;;;;2.00;1.00;;;12.90;99.90;;;;;;5055967;28;20198;-53
2023/04/14 11:48:20;;;;;;;3.17;1.10;;;12.90;99.90;;;;;;5055442;28;20710;-55
2023/04/14 11:50:48;;;;;;;4.30;1.23;;;12.80;99.90;;;;;;5047895;28;20286;-59
2023/04/14 11:53:16;;;;;;;1.77;0.90;;;12.70;99.90;;;;;;5056470;28;20187;-56
2023/04/14 11:55:45;;;;;;;3.80;0.83;;;12.60;99.90;;;;;;5043623;28;20222;-59
2023/04/14 11:58:14;;;;;;;2.83;1.10;;;12.70;99.90;;;;;;5065209;28;20254;-55
2023/04/14 12:00:41;;;;;;;3.27;1.10;;;12.80;99.90;;;;;;5060778;28;20670;-58
2023/04/14 12:03:08;;;;;;;2.80;0.93;;;12.80;99.90;;;;;;5049924;28;20283;-58
2023/04/14 12:05:35;;;;;;;2.63;1.07;;;12.80;99.90;;;;;;5045705;28;20195;-60
2023/04/14 12:08:03;;;;;;;3.63;1.40;;;12.90;99.90;;;;;;5051583;28;20223;-58
2023/04/14 12:10:31;;;;;;;4.13;1.23;;;12.90;99.90;;;;;;5064307;28;20273;-61
2023/04/14 12:13:02;;;;;;;2.30;1.50;;;12.90;99.90;;;;;;5046559;28;20228;-53
2023/04/14 12:15:32;;;;;;;2.30;1.20;;;13.00;99.90;;;;;;5064755;28;20211;-58
2023/04/14 12:17:59;;;;;;;2.27;1.23;;;13.00;99.90;;;;;;5046321;28;20341;-55
2023/04/14 12:20:27;;;;;;;2.77;1.50;;;13.00;99.90;;;;;;5049849;28;20201;-55
2023/04/14 12:23:01;;;;;;;2.87;1.50;;;13.00;99.90;;;;;;5047280;28;20941;-55
2023/04/14 12:25:31;;;;;;;3.17;1.83;;;13.00;99.90;;;;;;5063654;28;20193;-54
2023/04/14 12:27:58;;;;;;;2.30;1.50;;;13.00;99.90;;;;;;5036346;28;20229;-57
2023/04/14 12:30:26;;;;;;;6.23;1.50;;;12.90;99.90;;;;;;5063182;28;20210;-55
2023/04/14 12:32:54;;;;;;;1.63;1.53;;;12.90;99.90;;;;;;5041660;28;20214;-55
2023/04/14 12:35:23;;;;;;;4.50;2.60;;;13.00;99.90;;;;;;5058740;28;20210;-52
2023/04/14 12:37:51;;;;;;;3.17;1.63;;;13.00;99.90;;;;;;5040358;28;20222;-55
2023/04/14 12:40:36;;;;;;;4.77;2.07;;;13.00;99.90;;;;;;5052330;28;20209;-60
2023/04/14 12:43:03;;;;;;;3.63;1.77;;;13.00;99.90;;;;;;5032027;28;20615;-58
2023/04/14 12:45:39;;;;;;;2.07;1.77;;;13.00;99.90;;;;;;5055288;28;20690;-63
2023/04/14 12:48:07;;;;;;;2.33;1.50;;;13.00;99.90;;;;;;5056835;28;20237;-58
2023/04/14 12:50:34;;;;;;;3.37;1.80;;;12.90;99.90;;;;;;5057094;28;20221;-61
2023/04/14 12:53:02;;;;;;;1.33;1.23;;;12.90;99.90;;;;;;5043110;28;20205;-57
2023/04/14 12:55:30;;;;;;;4.23;1.97;;;12.90;99.90;;;;;;5068979;28;20776;-59
2023/04/14 12:57:58;;;;;;;3.03;1.70;;;13.00;99.90;;;;;;5034507;28;20227;-57
2023/04/14 13:00:26;;;;;;;3.13;1.67;;;13.10;99.90;;;;;;5056142;28;20201;-55
2023/04/14 13:02:54;;;;;;;2.17;1.73;;;13.20;99.90;;;;;;5057853;28;20219;-57
2023/04/14 13:05:22;;;;;;;5.33;2.10;;;13.20;99.90;;;;;;5041396;28;20206;-57